sensor_id;sensor_type;location;lat;lon;timestamp;pressure;altitude;pressure_sealevel;temperature;humidity
27334;BME280;14817;57.104;-2.094;2023-05-11T00:02:22;99963.50;;;9.76;100.00
27334;BME280;14817;57.104;-2.094;2023-05-11T00:04:49;99963.50;;;9.76;100.00
27334;BME280;14817;57.104;-2.094;2023-05-11T00:07:16;99965.66;;;9.72;100.00
27334;BME280;14817;57.104;-2.094;2023-05-11T00:09:42;99973.38;;;9.75;100.00
27334;BME280;14817;57.104;-2.094;2023-05-11T00:12:09;99974.19;;;9.76;100.00
27334;BME280;14817;57.104;-2.094;2023-05-11T00:14:36;99979.19;;;9.71;100.00
27334;BME280;14817;57.104;-2.094;2023-05-11T00:17:03;99974.50;;;9.65;100.00
27334;BME280;14817;57.104;-2.094;2023-05-11T00:19:30;99968.50;;;9.71;100.00
27334;BME280;14817;57.104;-2.094;2023-05-11T00:21:57;99975.19;;;9.75;100.00
27334;BME280;14817;57.104;-2.094;2023-05-11T00:24:25;99974.03;;;9.77;100.00
27334;BME280;14817;57.104;-2.094;2023-05-11T00:26:52;99976.53;;;9.71;100.00
27334;BME280;14817;57.104;-2.094;2023-05-11T00:29:18;99981.25;;;9.85;100.00
27334;BME280;14817;57.104;-2.094;2023-05-11T00:31:45;99983.44;;;9.90;100.00
27334;BME280;14817;57.104;-2.094;2023-05-11T00:34:14;99986.13;;;9.98;100.00
27334;BME280;14817;57.104;-2.094;2023-05-11T00:36:41;99990.13;;;9.94;100.00
27334;BME280;14817;57.104;-2.094;2023-05-11T00:39:09;99990.69;;;10.06;100.00
27334;BME280;14817;57.104;-2.094;2023-05-11T00:41:37;99992.84;;;10.02;100.00
27334;BME280;14817;57.104;-2.094;2023-05-11T00:44:04;99990.53;;;10.07;100.00
27334;BME280;14817;57.104;-2.094;2023-05-11T00:46:32;99993.88;;;10.09;100.00
27334;BME280;14817;57.104;-2.094;2023-05-11T00:48:59;99990.19;;;10.10;100.00
27334;BME280;14817;57.104;-2.094;2023-05-11T00:51:26;99996.22;;;10.12;100.00
27334;BME280;14817;57.104;-2.094;2023-05-11T00:53:53;99994.03;;;10.08;100.00
27334;BME280;14817;57.104;-2.094;2023-05-11T00:56:20;99996.69;;;9.99;100.00
27334;BME280;14817;57.104;-2.094;2023-05-11T00:58:47;100002.06;;;10.08;100.00
27334;BME280;14817;57.104;-2.094;2023-05-11T01:01:14;100005.38;;;10.01;100.00
27334;BME280;14817;57.104;-2.094;2023-05-11T01:03:44;99996.50;;;9.93;100.00
27334;BME280;14817;57.104;-2.094;2023-05-11T01:06:20;100009.88;;;9.93;100.00
27334;BME280;14817;57.104;-2.094;2023-05-11T01:09:05;100016.72;;;9.95;100.00
27334;BME280;14817;57.104;-2.094;2023-05-11T01:11:42;100013.44;;;10.10;100.00
27334;BME280;14817;57.104;-2.094;2023-05-11T01:14:26;100009.72;;;9.94;100.00
27334;BME280;14817;57.104;-2.094;2023-05-11T01:17:01;100015.91;;;9.95;100.00
27334;BME280;14817;57.104;-2.094;2023-05-11T01:19:45;100019.38;;;9.87;100.00
27334;BME280;14817;57.104;-2.094;2023-05-11T01:25:17;100029.56;;;9.84;100.00
27334;BME280;14817;57.104;-2.094;2023-05-11T01:28:09;100025.00;;;9.76;100.00
27334;BME280;14817;57.104;-2.094;2023-05-11T01:30:51;100030.16;;;9.69;100.00
27334;BME280;14817;57.104;-2.094;2023-05-11T01:33:25;100037.63;;;9.66;100.00
27334;BME280;14817;57.104;-2.094;2023-05-11T01:35:57;100034.00;;;9.67;100.00
27334;BME280;14817;57.104;-2.094;2023-05-11T01:38:30;100038.81;;;9.63;100.00
27334;BME280;14817;57.104;-2.094;2023-05-11T01:40:59;100044.22;;;9.71;100.00
27334;BME280;14817;57.104;-2.094;2023-05-11T01:43:29;100042.34;;;9.72;100.00
27334;BME280;14817;57.104;-2.094;2023-05-11T01:46:00;100057.25;;;9.74;100.00
27334;BME280;14817;57.104;-2.094;2023-05-11T01:48:34;100058.41;;;9.72;100.00
27334;BME280;14817;57.104;-2.094;2023-05-11T01:51:03;100049.06;;;9.76;100.00
27334;BME280;14817;57.104;-2.094;2023-05-11T01:53:34;100060.31;;;9.79;100.00
27334;BME280;14817;57.104;-2.094;2023-05-11T01:56:02;100062.97;;;9.79;100.00
27334;BME280;14817;57.104;-2.094;2023-05-11T01:58:31;100069.16;;;9.80;100.00
27334;BME280;14817;57.104;-2.094;2023-05-11T02:01:01;100070.13;;;9.79;100.00
27334;BME280;14817;57.104;-2.094;2023-05-11T02:03:30;100073.50;;;9.81;100.00
27334;BME280;14817;57.104;-2.094;2023-05-11T02:05:59;100082.13;;;9.75;100.00
27334;BME280;14817;57.104;-2.094;2023-05-11T02:08:28;100084.31;;;9.71;100.00
27334;BME280;14817;57.104;-2.094;2023-05-11T02:10:57;100084.41;;;9.61;100.00
27334;BME280;14817;57.104;-2.094;2023-05-11T02:13:25;100083.72;;;9.59;100.00
27334;BME280;14817;57.104;-2.094;2023-05-11T02:15:55;100091.38;;;9.54;100.00
27334;BME280;14817;57.104;-2.094;2023-05-11T02:18:22;100097.63;;;9.63;100.00
27334;BME280;14817;57.104;-2.094;2023-05-11T02:20:57;100095.09;;;9.61;100.00
27334;BME280;14817;57.104;-2.094;2023-05-11T02:23:26;100106.47;;;9.64;100.00
27334;BME280;14817;57.104;-2.094;2023-05-11T02:25:55;100099.19;;;9.74;100.00
27334;BME280;14817;57.104;-2.094;2023-05-11T02:28:22;100111.88;;;9.72;100.00
27334;BME280;14817;57.104;-2.094;2023-05-11T02:30:53;100112.22;;;9.69;100.00
27334;BME280;14817;57.104;-2.094;2023-05-11T02:33:27;100121.22;;;9.68;100.00
27334;BME280;14817;57.104;-2.094;2023-05-11T02:35:57;100128.41;;;9.67;100.00
27334;BME280;14817;57.104;-2.094;2023-05-11T02:38:31;100121.75;;;9.71;100.00
27334;BME280;14817;57.104;-2.094;2023-05-11T02:41:03;100127.25;;;9.70;100.00
27334;BME280;14817;57.104;-2.094;2023-05-11T02:43:34;100136.00;;;9.80;100.00
27334;BME280;14817;57.104;-2.094;2023-05-11T02:46:05;100130.53;;;9.64;100.00
27334;BME280;14817;57.104;-2.094;2023-05-11T02:48:37;100137.19;;;9.59;100.00
27334;BME280;14817;57.104;-2.094;2023-05-11T02:51:09;100139.56;;;9.63;100.00
27334;BME280;14817;57.104;-2.094;2023-05-11T02:53:43;100148.03;;;9.58;100.00
27334;BME280;14817;57.104;-2.094;2023-05-11T02:56:12;100147.81;;;9.51;100.00
27334;BME280;14817;57.104;-2.094;2023-05-11T02:58:39;100153.16;;;9.51;100.00
27334;BME280;14817;57.104;-2.094;2023-05-11T03:01:17;100153.78;;;9.63;100.00
27334;BME280;14817;57.104;-2.094;2023-05-11T03:03:44;100158.72;;;9.58;100.00
27334;BME280;14817;57.104;-2.094;2023-05-11T03:06:13;100155.47;;;9.46;100.00
27334;BME280;14817;57.104;-2.094;2023-05-11T03:08:40;100159.69;;;9.31;100.00
27334;BME280;14817;57.104;-2.094;2023-05-11T03:11:08;100169.13;;;9.25;100.00
27334;BME280;14817;57.104;-2.094;2023-05-11T03:13:38;100168.69;;;9.30;100.00
27334;BME280;14817;57.104;-2.094;2023-05-11T03:16:06;100168.31;;;9.25;100.00
27334;BME280;14817;57.104;-2.094;2023-05-11T03:18:35;100162.75;;;9.18;100.00
27334;BME280;14817;57.104;-2.094;2023-05-11T03:21:01;100162.03;;;9.16;100.00
27334;BME280;14817;57.104;-2.094;2023-05-11T03:23:29;100169.06;;;9.17;100.00
27334;BME280;14817;57.104;-2.094;2023-05-11T03:25:58;100171.91;;;9.15;100.00
27334;BME280;14817;57.104;-2.094;2023-05-11T03:28:26;100168.13;;;9.08;100.00
27334;BME280;14817;57.104;-2.094;2023-05-11T03:31:02;100182.41;;;8.99;100.00
27334;BME280;14817;57.104;-2.094;2023-05-11T03:33:31;100184.25;;;8.98;100.00
27334;BME280;14817;57.104;-2.094;2023-05-11T03:35:59;100191.03;;;8.93;100.00
27334;BME280;14817;57.104;-2.094;2023-05-11T03:38:28;100197.19;;;8.93;100.00
27334;BME280;14817;57.104;-2.094;2023-05-11T03:40:57;100200.09;;;9.00;100.00
27334;BME280;14817;57.104;-2.094;2023-05-11T03:43:27;100202.78;;;9.00;100.00
27334;BME280;14817;57.104;-2.094;2023-05-11T03:45:56;100203.38;;;8.94;100.00
27334;BME280;14817;57.104;-2.094;2023-05-11T03:48:24;100202.28;;;8.87;100.00
27334;BME280;14817;57.104;-2.094;2023-05-11T03:50:52;100212.38;;;8.93;100.00
27334;BME280;14817;57.104;-2.094;2023-05-11T03:53:19;100213.78;;;8.97;100.00
27334;BME280;14817;57.104;-2.094;2023-05-11T03:55:47;100216.06;;;8.92;100.00
27334;BME280;14817;57.104;-2.094;2023-05-11T03:58:15;100214.69;;;8.88;100.00
27334;BME280;14817;57.104;-2.094;2023-05-11T04:00:42;100215.38;;;8.90;100.00
27334;BME280;14817;57.104;-2.094;2023-05-11T04:03:09;100211.31;;;8.86;100.00
27334;BME280;14817;57.104;-2.094;2023-05-11T04:05:37;100217.25;;;8.79;100.00
27334;BME280;14817;57.104;-2.094;2023-05-11T04:08:08;100228.19;;;8.76;100.00
27334;BME280;14817;57.104;-2.094;2023-05-11T04:10:35;100226.31;;;8.87;100.00
27334;BME280;14817;57.104;-2.094;2023-05-11T04:13:03;100230.19;;;8.74;100.00
27334;BME280;14817;57.104;-2.094;2023-05-11T04:15:30;100236.72;;;8.90;100.00
27334;BME280;14817;57.104;-2.094;2023-05-11T04:17:57;100238.28;;;8.83;100.00
27334;BME280;14817;57.104;-2.094;2023-05-11T04:20:24;100241.06;;;8.91;100.00
27334;BME280;14817;57.104;-2.094;2023-05-11T04:22:51;100246.31;;;8.83;100.00
27334;BME280;14817;57.104;-2.094;2023-05-11T04:25:18;100240.81;;;8.84;100.00
27334;BME280;14817;57.104;-2.094;2023-05-11T04:27:44;100250.59;;;8.93;100.00
27334;BME280;14817;57.104;-2.094;2023-05-11T04:30:11;100240.03;;;9.02;100.00
27334;BME280;14817;57.104;-2.094;2023-05-11T04:32:38;100247.78;;;8.95;100.00
27334;BME280;14817;57.104;-2.094;2023-05-11T04:35:05;100258.38;;;8.87;100.00
27334;BME280;14817;57.104;-2.094;2023-05-11T04:37:35;100266.09;;;8.90;100.00
27334;BME280;14817;57.104;-2.094;2023-05-11T04:40:05;100264.72;;;8.86;100.00
27334;BME280;14817;57.104;-2.094;2023-05-11T04:42:38;100269.84;;;8.97;100.00
27334;BME280;14817;57.104;-2.094;2023-05-11T04:45:08;100275.00;;;9.08;100.00
27334;BME280;14817;57.104;-2.094;2023-05-11T04:47:36;100274.16;;;9.08;100.00
27334;BME280;14817;57.104;-2.094;2023-05-11T04:50:06;100280.66;;;9.05;100.00
27334;BME280;14817;57.104;-2.094;2023-05-11T04:52:34;100278.25;;;9.02;100.00
27334;BME280;14817;57.104;-2.094;2023-05-11T04:55:01;100282.16;;;9.08;100.00
27334;BME280;14817;57.104;-2.094;2023-05-11T04:57:28;100280.91;;;9.02;100.00
27334;BME280;14817;57.104;-2.094;2023-05-11T04:59:55;100284.03;;;8.97;100.00
27334;BME280;14817;57.104;-2.094;2023-05-11T05:02:22;100281.00;;;8.92;100.00
27334;BME280;14817;57.104;-2.094;2023-05-11T05:04:49;100284.00;;;9.07;100.00
27334;BME280;14817;57.104;-2.094;2023-05-11T05:07:15;100298.44;;;9.14;100.00
27334;BME280;14817;57.104;-2.094;2023-05-11T05:09:42;100292.88;;;9.26;100.00
27334;BME280;14817;57.104;-2.094;2023-05-11T05:12:12;100297.41;;;9.25;100.00
27334;BME280;14817;57.104;-2.094;2023-05-11T05:14:39;100302.06;;;9.23;100.00
27334;BME280;14817;57.104;-2.094;2023-05-11T05:17:06;100303.06;;;9.22;100.00
27334;BME280;14817;57.104;-2.094;2023-05-11T05:19:33;100299.00;;;9.18;100.00
27334;BME280;14817;57.104;-2.094;2023-05-11T05:22:00;100304.38;;;9.36;100.00
27334;BME280;14817;57.104;-2.094;2023-05-11T05:24:29;100300.53;;;9.20;100.00
27334;BME280;14817;57.104;-2.094;2023-05-11T05:26:58;100304.69;;;9.33;100.00
27334;BME280;14817;57.104;-2.094;2023-05-11T05:29:25;100306.59;;;9.13;100.00
27334;BME280;14817;57.104;-2.094;2023-05-11T05:31:53;100312.97;;;9.02;100.00
27334;BME280;14817;57.104;-2.094;2023-05-11T05:34:22;100321.50;;;9.15;100.00
27334;BME280;14817;57.104;-2.094;2023-05-11T05:36:49;100320.91;;;9.22;100.00
27334;BME280;14817;57.104;-2.094;2023-05-11T05:39:15;100324.91;;;9.35;100.00
27334;BME280;14817;57.104;-2.094;2023-05-11T05:41:43;100331.50;;;9.41;100.00
27334;BME280;14817;57.104;-2.094;2023-05-11T05:44:11;100329.75;;;9.50;100.00
27334;BME280;14817;57.104;-2.094;2023-05-11T05:46:39;100327.00;;;9.59;100.00
27334;BME280;14817;57.104;-2.094;2023-05-11T05:49:06;100330.00;;;9.56;100.00
27334;BME280;14817;57.104;-2.094;2023-05-11T05:51:35;100331.09;;;9.36;100.00
27334;BME280;14817;57.104;-2.094;2023-05-11T05:54:03;100330.44;;;9.52;100.00
27334;BME280;14817;57.104;-2.094;2023-05-11T05:56:31;100336.13;;;9.67;100.00
27334;BME280;14817;57.104;-2.094;2023-05-11T05:59:04;100338.16;;;9.73;100.00
27334;BME280;14817;57.104;-2.094;2023-05-11T06:01:31;100341.78;;;9.36;100.00
27334;BME280;14817;57.104;-2.094;2023-05-11T06:03:59;100347.97;;;9.36;100.00
27334;BME280;14817;57.104;-2.094;2023-05-11T06:06:26;100347.56;;;9.59;100.00
27334;BME280;14817;57.104;-2.094;2023-05-11T06:08:54;100348.31;;;9.51;100.00
27334;BME280;14817;57.104;-2.094;2023-05-11T06:11:21;100349.50;;;9.67;100.00
27334;BME280;14817;57.104;-2.094;2023-05-11T06:13:49;100350.66;;;9.82;100.00
27334;BME280;14817;57.104;-2.094;2023-05-11T06:16:16;100359.09;;;9.59;100.00
27334;BME280;14817;57.104;-2.094;2023-05-11T06:18:45;100365.13;;;9.61;100.00
27334;BME280;14817;57.104;-2.094;2023-05-11T06:21:13;100368.41;;;9.55;100.00
27334;BME280;14817;57.104;-2.094;2023-05-11T06:23:42;100372.59;;;9.58;100.00
27334;BME280;14817;57.104;-2.094;2023-05-11T06:26:09;100373.69;;;9.65;100.00
27334;BME280;14817;57.104;-2.094;2023-05-11T06:28:36;100375.69;;;9.63;100.00
27334;BME280;14817;57.104;-2.094;2023-05-11T06:31:07;100382.97;;;9.71;100.00
27334;BME280;14817;57.104;-2.094;2023-05-11T06:33:38;100380.63;;;9.58;100.00
27334;BME280;14817;57.104;-2.094;2023-05-11T06:36:10;100382.84;;;9.90;100.00
27334;BME280;14817;57.104;-2.094;2023-05-11T06:38:37;100388.56;;;9.95;100.00
27334;BME280;14817;57.104;-2.094;2023-05-11T06:41:05;100382.97;;;10.07;100.00
27334;BME280;14817;57.104;-2.094;2023-05-11T06:43:33;100389.56;;;9.94;100.00
27334;BME280;14817;57.104;-2.094;2023-05-11T06:46:02;100394.00;;;10.04;100.00
27334;BME280;14817;57.104;-2.094;2023-05-11T06:48:30;100391.09;;;10.15;100.00
27334;BME280;14817;57.104;-2.094;2023-05-11T06:50:57;100397.38;;;10.06;100.00
27334;BME280;14817;57.104;-2.094;2023-05-11T06:53:24;100399.16;;;10.33;100.00
27334;BME280;14817;57.104;-2.094;2023-05-11T06:55:53;100409.41;;;10.37;100.00
27334;BME280;14817;57.104;-2.094;2023-05-11T06:58:21;100410.72;;;10.33;100.00
27334;BME280;14817;57.104;-2.094;2023-05-11T07:00:48;100417.88;;;10.51;100.00
27334;BME280;14817;57.104;-2.094;2023-05-11T07:03:15;100409.59;;;10.62;100.00
27334;BME280;14817;57.104;-2.094;2023-05-11T07:05:42;100409.69;;;10.52;100.00
27334;BME280;14817;57.104;-2.094;2023-05-11T07:08:09;100405.75;;;10.65;100.00
27334;BME280;14817;57.104;-2.094;2023-05-11T07:10:36;100409.59;;;10.62;100.00
27334;BME280;14817;57.104;-2.094;2023-05-11T07:13:04;100408.63;;;10.63;100.00
27334;BME280;14817;57.104;-2.094;2023-05-11T07:15:31;100409.81;;;10.69;100.00
27334;BME280;14817;57.104;-2.094;2023-05-11T07:17:58;100405.25;;;10.61;100.00
27334;BME280;14817;57.104;-2.094;2023-05-11T07:20:26;100404.72;;;10.83;100.00
27334;BME280;14817;57.104;-2.094;2023-05-11T07:22:57;100417.50;;;10.90;100.00
27334;BME280;14817;57.104;-2.094;2023-05-11T07:25:25;100425.66;;;10.80;100.00
27334;BME280;14817;57.104;-2.094;2023-05-11T07:27:52;100415.81;;;10.89;100.00
27334;BME280;14817;57.104;-2.094;2023-05-11T07:30:19;100420.00;;;11.17;100.00
27334;BME280;14817;57.104;-2.094;2023-05-11T07:32:46;100419.44;;;11.32;100.00
27334;BME280;14817;57.104;-2.094;2023-05-11T07:35:14;100420.66;;;11.37;100.00
27334;BME280;14817;57.104;-2.094;2023-05-11T07:37:41;100427.03;;;11.44;100.00
27334;BME280;14817;57.104;-2.094;2023-05-11T07:40:08;100425.31;;;11.70;100.00
27334;BME280;14817;57.104;-2.094;2023-05-11T07:42:35;100423.28;;;11.72;100.00
27334;BME280;14817;57.104;-2.094;2023-05-11T07:45:02;100423.97;;;11.82;100.00
27334;BME280;14817;57.104;-2.094;2023-05-11T07:47:29;100429.63;;;12.05;100.00
27334;BME280;14817;57.104;-2.094;2023-05-11T07:49:56;100435.28;;;11.94;100.00
27334;BME280;14817;57.104;-2.094;2023-05-11T07:52:22;100432.09;;;11.90;100.00
27334;BME280;14817;57.104;-2.094;2023-05-11T07:54:49;100426.44;;;12.18;100.00
27334;BME280;14817;57.104;-2.094;2023-05-11T07:57:16;100432.34;;;12.21;100.00
27334;BME280;14817;57.104;-2.094;2023-05-11T07:59:43;100435.22;;;12.44;100.00
27334;BME280;14817;57.104;-2.094;2023-05-11T08:02:10;100435.56;;;12.58;100.00
27334;BME280;14817;57.104;-2.094;2023-05-11T08:04:38;100426.16;;;12.45;100.00
27334;BME280;14817;57.104;-2.094;2023-05-11T08:07:06;100433.88;;;12.73;100.00
27334;BME280;14817;57.104;-2.094;2023-05-11T08:09:33;100442.59;;;12.67;100.00
27334;BME280;14817;57.104;-2.094;2023-05-11T08:11:59;100436.88;;;12.95;100.00
27334;BME280;14817;57.104;-2.094;2023-05-11T08:14:27;100438.72;;;13.02;100.00
27334;BME280;14817;57.104;-2.094;2023-05-11T08:16:54;100445.59;;;13.21;100.00
27334;BME280;14817;57.104;-2.094;2023-05-11T08:19:21;100450.81;;;13.23;100.00
27334;BME280;14817;57.104;-2.094;2023-05-11T08:21:48;100455.66;;;13.27;100.00
27334;BME280;14817;57.104;-2.094;2023-05-11T08:24:14;100459.72;;;13.07;100.00
27334;BME280;14817;57.104;-2.094;2023-05-11T08:26:42;100464.06;;;13.24;100.00
27334;BME280;14817;57.104;-2.094;2023-05-11T08:29:10;100461.88;;;13.28;100.00
27334;BME280;14817;57.104;-2.094;2023-05-11T08:31:37;100469.66;;;12.98;100.00
27334;BME280;14817;57.104;-2.094;2023-05-11T08:34:06;100473.81;;;13.17;100.00
27334;BME280;14817;57.104;-2.094;2023-05-11T08:36:45;100479.22;;;13.01;100.00
27334;BME280;14817;57.104;-2.094;2023-05-11T08:39:12;100483.09;;;12.98;100.00
27334;BME280;14817;57.104;-2.094;2023-05-11T08:41:39;100490.13;;;12.99;100.00
27334;BME280;14817;57.104;-2.094;2023-05-11T08:44:06;100484.28;;;12.87;100.00
27334;BME280;14817;57.104;-2.094;2023-05-11T08:46:35;100492.16;;;12.73;100.00
27334;BME280;14817;57.104;-2.094;2023-05-11T08:49:02;100498.03;;;12.60;100.00
27334;BME280;14817;57.104;-2.094;2023-05-11T08:51:29;100494.50;;;12.51;100.00
27334;BME280;14817;57.104;-2.094;2023-05-11T08:53:55;100497.38;;;12.66;100.00
27334;BME280;14817;57.104;-2.094;2023-05-11T08:56:25;100498.03;;;12.93;100.00
27334;BME280;14817;57.104;-2.094;2023-05-11T08:58:54;100502.25;;;12.87;100.00
27334;BME280;14817;57.104;-2.094;2023-05-11T09:01:22;100507.13;;;13.00;100.00
27334;BME280;14817;57.104;-2.094;2023-05-11T09:03:50;100513.50;;;12.82;100.00
27334;BME280;14817;57.104;-2.094;2023-05-11T09:06:17;100515.69;;;12.79;100.00
27334;BME280;14817;57.104;-2.094;2023-05-11T09:08:45;100525.56;;;12.62;100.00
27334;BME280;14817;57.104;-2.094;2023-05-11T09:11:12;100528.94;;;12.72;100.00
27334;BME280;14817;57.104;-2.094;2023-05-11T09:13:39;100529.09;;;12.62;100.00
27334;BME280;14817;57.104;-2.094;2023-05-11T09:16:06;100533.28;;;12.65;100.00
27334;BME280;14817;57.104;-2.094;2023-05-11T09:18:50;100535.13;;;12.56;100.00
27334;BME280;14817;57.104;-2.094;2023-05-11T09:21:23;100530.97;;;12.70;100.00
27334;BME280;14817;57.104;-2.094;2023-05-11T09:23:50;100551.56;;;12.53;100.00
27334;BME280;14817;57.104;-2.094;2023-05-11T09:26:21;100556.13;;;12.53;100.00
27334;BME280;14817;57.104;-2.094;2023-05-11T09:28:51;100556.28;;;12.51;100.00
27334;BME280;14817;57.104;-2.094;2023-05-11T09:34:19;100557.59;;;12.47;100.00
27334;BME280;14817;57.104;-2.094;2023-05-11T09:36:48;100558.13;;;12.67;100.00
27334;BME280;14817;57.104;-2.094;2023-05-11T09:39:16;100559.81;;;12.60;100.00
27334;BME280;14817;57.104;-2.094;2023-05-11T09:42:15;100565.53;;;12.73;100.00
27334;BME280;14817;57.104;-2.094;2023-05-11T09:44:43;100573.44;;;12.16;100.00
27334;BME280;14817;57.104;-2.094;2023-05-11T09:47:11;100577.69;;;12.35;100.00
27334;BME280;14817;57.104;-2.094;2023-05-11T09:49:42;100568.88;;;12.51;100.00
27334;BME280;14817;57.104;-2.094;2023-05-11T09:52:13;100567.97;;;12.34;100.00
27334;BME280;14817;57.104;-2.094;2023-05-11T09:54:42;100574.06;;;12.52;100.00
27334;BME280;14817;57.104;-2.094;2023-05-11T09:59:48;100582.47;;;12.07;100.00
27334;BME280;14817;57.104;-2.094;2023-05-11T10:02:22;100589.84;;;12.04;100.00
27334;BME280;14817;57.104;-2.094;2023-05-11T10:04:51;100587.19;;;12.13;100.00
27334;BME280;14817;57.104;-2.094;2023-05-11T10:07:34;100591.28;;;12.25;100.00
27334;BME280;14817;57.104;-2.094;2023-05-11T10:10:06;100602.84;;;12.25;100.00
27334;BME280;14817;57.104;-2.094;2023-05-11T10:12:34;100601.69;;;12.28;100.00
27334;BME280;14817;57.104;-2.094;2023-05-11T10:15:08;100595.03;;;12.40;100.00
27334;BME280;14817;57.104;-2.094;2023-05-11T10:17:35;100610.53;;;12.20;100.00
27334;BME280;14817;57.104;-2.094;2023-05-11T10:20:04;100614.22;;;12.62;100.00
27334;BME280;14817;57.104;-2.094;2023-05-11T10:22:31;100609.88;;;12.69;100.00
27334;BME280;14817;57.104;-2.094;2023-05-11T10:24:59;100615.28;;;12.85;100.00
27334;BME280;14817;57.104;-2.094;2023-05-11T10:27:27;100617.66;;;12.80;100.00
27334;BME280;14817;57.104;-2.094;2023-05-11T10:29:55;100617.94;;;12.69;100.00
27334;BME280;14817;57.104;-2.094;2023-05-11T10:32:24;100624.38;;;12.84;100.00
27334;BME280;14817;57.104;-2.094;2023-05-11T10:34:51;100622.03;;;12.90;100.00
27334;BME280;14817;57.104;-2.094;2023-05-11T10:37:18;100636.41;;;12.64;100.00
27334;BME280;14817;57.104;-2.094;2023-05-11T10:39:47;100631.66;;;12.50;100.00
27334;BME280;14817;57.104;-2.094;2023-05-11T10:45:23;100639.09;;;12.64;100.00
27334;BME280;14817;57.104;-2.094;2023-05-11T10:56:27;100657.47;;;12.85;100.00
27334;BME280;14817;57.104;-2.094;2023-05-11T11:01:53;100662.53;;;12.96;100.00
27334;BME280;14817;57.104;-2.094;2023-05-11T11:04:24;100664.72;;;13.09;100.00
27334;BME280;14817;57.104;-2.094;2023-05-11T11:07:04;100664.41;;;13.12;100.00
27334;BME280;14817;57.104;-2.094;2023-05-11T11:09:53;100666.75;;;13.07;100.00
27334;BME280;14817;57.104;-2.094;2023-05-11T11:12:21;100664.88;;;13.07;100.00
27334;BME280;14817;57.104;-2.094;2023-05-11T11:14:59;100663.06;;;13.16;100.00
27334;BME280;14817;57.104;-2.094;2023-05-11T11:17:34;100669.78;;;13.20;100.00
27334;BME280;14817;57.104;-2.094;2023-05-11T11:20:05;100675.50;;;13.09;100.00
27334;BME280;14817;57.104;-2.094;2023-05-11T11:30:23;100693.63;;;13.07;100.00
27334;BME280;14817;57.104;-2.094;2023-05-11T11:38:18;100685.75;;;13.22;100.00
27334;BME280;14817;57.104;-2.094;2023-05-11T11:40:49;100684.09;;;13.21;100.00
27334;BME280;14817;57.104;-2.094;2023-05-11T11:43:23;100686.09;;;13.27;100.00
27334;BME280;14817;57.104;-2.094;2023-05-11T11:46:03;100686.66;;;13.39;100.00
27334;BME280;14817;57.104;-2.094;2023-05-11T11:48:32;100694.06;;;13.45;100.00
27334;BME280;14817;57.104;-2.094;2023-05-11T11:51:11;100697.63;;;13.62;100.00
27334;BME280;14817;57.104;-2.094;2023-05-11T11:56:08;100693.38;;;13.84;100.00
27334;BME280;14817;57.104;-2.094;2023-05-11T11:58:58;100703.47;;;13.98;100.00
27334;BME280;14817;57.104;-2.094;2023-05-11T12:01:26;100705.53;;;13.63;100.00
27334;BME280;14817;57.104;-2.094;2023-05-11T12:06:35;100707.53;;;13.94;100.00
27334;BME280;14817;57.104;-2.094;2023-05-11T12:09:03;100720.97;;;13.69;100.00
27334;BME280;14817;57.104;-2.094;2023-05-11T12:11:31;100727.53;;;13.75;100.00
27334;BME280;14817;57.104;-2.094;2023-05-11T12:13:59;100735.78;;;13.49;100.00
27334;BME280;14817;57.104;-2.094;2023-05-11T12:16:26;100738.56;;;13.23;100.00
27334;BME280;14817;57.104;-2.094;2023-05-11T12:18:55;100747.09;;;12.68;100.00
27334;BME280;14817;57.104;-2.094;2023-05-11T12:21:28;100740.47;;;13.47;100.00
27334;BME280;14817;57.104;-2.094;2023-05-11T12:23:59;100754.19;;;13.19;100.00
27334;BME280;14817;57.104;-2.094;2023-05-11T12:26:27;100750.31;;;13.22;100.00
27334;BME280;14817;57.104;-2.094;2023-05-11T12:29:09;100752.91;;;12.89;100.00
27334;BME280;14817;57.104;-2.094;2023-05-11T12:31:37;100765.38;;;12.64;100.00
27334;BME280;14817;57.104;-2.094;2023-05-11T12:34:04;100762.91;;;12.44;100.00
27334;BME280;14817;57.104;-2.094;2023-05-11T12:36:32;100771.25;;;12.33;100.00
27334;BME280;14817;57.104;-2.094;2023-05-11T12:38:59;100768.22;;;12.36;100.00
27334;BME280;14817;57.104;-2.094;2023-05-11T12:41:26;100774.34;;;12.46;100.00
27334;BME280;14817;57.104;-2.094;2023-05-11T12:43:53;100773.13;;;12.41;100.00
27334;BME280;14817;57.104;-2.094;2023-05-11T12:46:21;100772.91;;;12.34;100.00
27334;BME280;14817;57.104;-2.094;2023-05-11T12:48:50;100774.56;;;12.27;100.00
27334;BME280;14817;57.104;-2.094;2023-05-11T12:54:39;100786.19;;;12.36;100.00
27334;BME280;14817;57.104;-2.094;2023-05-11T12:57:08;100781.13;;;12.33;100.00
27334;BME280;14817;57.104;-2.094;2023-05-11T12:59:47;100783.13;;;12.31;100.00
27334;BME280;14817;57.104;-2.094;2023-05-11T13:02:20;100793.22;;;12.11;100.00
27334;BME280;14817;57.104;-2.094;2023-05-11T13:04:47;100798.13;;;12.15;100.00
27334;BME280;14817;57.104;-2.094;2023-05-11T13:07:23;100793.66;;;12.24;100.00
27334;BME280;14817;57.104;-2.094;2023-05-11T13:09:58;100797.38;;;12.49;100.00
27334;BME280;14817;57.104;-2.094;2023-05-11T13:12:26;100813.56;;;12.39;100.00
27334;BME280;14817;57.104;-2.094;2023-05-11T13:15:10;100813.41;;;12.15;100.00
27334;BME280;14817;57.104;-2.094;2023-05-11T13:17:40;100812.56;;;11.96;100.00
27334;BME280;14817;57.104;-2.094;2023-05-11T13:20:33;100814.31;;;12.23;100.00
27334;BME280;14817;57.104;-2.094;2023-05-11T13:23:12;100811.41;;;12.43;100.00
27334;BME280;14817;57.104;-2.094;2023-05-11T13:28:16;100814.84;;;12.79;100.00
27334;BME280;14817;57.104;-2.094;2023-05-11T13:30:44;100820.34;;;13.04;100.00
27334;BME280;14817;57.104;-2.094;2023-05-11T13:33:11;100823.94;;;12.86;100.00
27334;BME280;14817;57.104;-2.094;2023-05-11T13:35:41;100833.59;;;12.71;100.00